Time;durP1;ratioP1;P1;durP2;ratioP2;P2;SDS_P1;SDS_P2;PMS_P1;PMS_P2;Temp;Humidity;BMP_temperature;BMP_pressure;BME280_temperature;BME280_humidity;BME280_pressure;Samples;Min_cycle;Max_cycle;Signal;HPM_P1;HPM_P2
2022/04/07 00:07:41;;;;;;;20.65;10.70;;;;;;;11.31;44.46;99873.44;123879;1102;104409;-77
2022/04/07 00:24:16;;;;;;;;;;;;;;;11.06;45.11;99861.45;123578;1102;104422;-77
2022/04/07 00:43:04;;;;;;;18.73;8.97;;;;;;;10.88;45.46;99834.80;123355;1102;104438;-78
2022/04/07 00:52:46;;;;;;;;;;;;;;;10.73;45.15;99820.44;123690;1102;104393;-78
2022/04/07 00:55:32;;;;;;;17.63;8.43;;;;;;;10.70;45.59;99822.11;123484;1102;104443;-77
2022/04/07 00:58:39;;;;;;;17.53;8.57;;;;;;;10.66;45.04;99817.63;123700;1102;104257;-77
2022/04/07 01:11:55;;;;;;;16.03;8.20;;;;;;;10.55;44.84;99815.65;123740;1102;104354;-78
2022/04/07 01:18:25;;;;;;;15.67;8.10;;;;;;;10.45;45.29;99813.63;123936;1102;104322;-78
2022/04/07 01:37:35;;;;;;;13.57;6.97;;;;;;;10.23;46.18;99813.05;124417;1099;104326;-78
2022/04/07 02:13:09;;;;;;;15.70;7.55;;;;;;;9.85;45.82;99802.44;123751;1099;104281;-78
2022/04/07 02:22:46;;;;;;;17.97;7.80;;;;;;;9.80;46.60;99803.15;124356;1099;104278;-78
2022/04/07 02:32:45;;;;;;;17.23;8.03;;;;;;;9.69;46.05;99792.38;123689;1102;104459;-78
2022/04/07 02:38:26;;;;;;;16.33;7.80;;;;;;;9.62;47.21;99788.70;124150;1102;104233;-77
2022/04/07 02:44:28;;;;;;;16.93;8.00;;;;;;;9.47;47.60;99794.41;123989;1103;104412;-76
2022/04/07 02:50:27;;;;;;;18.13;8.33;;;;;;;9.32;47.32;99786.11;124250;1099;104278;-77
2022/04/07 02:56:26;;;;;;;18.80;8.75;;;;;;;9.16;47.56;99783.03;123808;1102;104354;-77
2022/04/07 03:02:42;;;;;;;19.67;9.50;;;;;;;9.03;48.34;99786.11;123709;1103;104440;-77
2022/04/07 03:21:36;;;;;;;19.90;9.47;;;;;;;8.67;48.71;99768.44;123787;1102;104421;-78
2022/04/07 03:24:36;;;;;;;20.77;10.03;;;;;;;8.66;48.87;99776.23;124622;1102;104248;-78
2022/04/07 03:30:50;;;;;;;22.70;11.93;;;;;;;8.54;49.39;99767.17;124271;1098;104421;-78
2022/04/07 03:36:57;;;;;;;22.73;11.30;;;;;;;8.42;50.81;99775.45;124817;1101;104411;-78
2022/04/07 03:57:23;;;;;;;26.50;14.43;;;;;;;8.14;51.24;99775.39;124779;1102;104437;-77
2022/04/07 04:18:43;;;;;;;29.97;15.50;;;;;;;8.20;52.13;99784.32;128038;1089;101847;-78
2022/04/07 04:21:57;;;;;;;30.83;16.40;;;;;;;8.20;52.81;99772.98;124309;1102;104239;-76
2022/04/07 04:24:26;;;;;;;28.07;15.83;;;;;;;8.22;52.08;99774.80;123965;1102;104747;-75
2022/04/07 04:26:55;;;;;;;26.60;15.87;;;;;;;8.26;52.69;99778.42;123967;1102;104415;-75
2022/04/07 04:32:35;;;;;;;28.77;16.53;;;;;;;8.32;53.11;99775.10;123756;1102;108316;-78
2022/04/07 04:35:21;;;;;;;30.87;17.23;;;;;;;8.33;52.88;99776.89;123603;1102;104238;-77
2022/04/07 04:37:51;;;;;;;29.73;17.07;;;;;;;8.41;53.66;99778.93;123457;1102;104258;-77
2022/04/07 04:40:23;;;;;;;31.27;17.37;;;;;;;8.45;52.85;99779.94;123624;1102;104431;-75
2022/04/07 04:42:59;;;;;;;30.87;18.03;;;;;;;8.50;53.33;99777.48;123329;1105;104252;-75
2022/04/07 04:45:55;;;;;;;30.10;17.23;;;;;;;8.54;54.08;99774.10;123688;1102;104377;-74
2022/04/07 04:48:26;;;;;;;29.73;16.37;;;;;;;8.57;53.73;99772.50;123520;1105;104297;-75
2022/04/07 04:50:56;;;;;;;29.63;16.77;;;;;;;8.63;53.73;99777.92;123725;1102;104230;-75
2022/04/07 04:53:27;;;;;;;30.27;16.20;;;;;;;8.64;53.49;99771.83;123768;1102;104169;-76
2022/04/07 04:55:57;;;;;;;29.50;17.03;;;;;;;8.73;52.81;99781.71;123234;1102;104431;-76
2022/04/07 05:01:33;;;;;;;30.20;16.90;;;;;;;8.85;54.33;99777.69;123571;1102;104424;-77
2022/04/07 05:04:02;;;;;;;28.87;16.33;;;;;;;8.85;53.97;99777.69;123591;1102;104366;-77
2022/04/07 05:06:34;;;;;;;26.27;14.90;;;;;;;8.89;54.44;99782.19;123254;1102;104322;-76
2022/04/07 05:12:06;;;;;;;27.20;15.20;;;;;;;8.94;54.51;99778.89;123359;1102;104402;-77
2022/04/07 05:14:47;;;;;;;25.30;14.53;;;;;;;8.97;53.93;99776.33;123338;1102;104376;-77
2022/04/07 05:17:21;;;;;;;26.73;14.67;;;;;;;9.03;54.12;99765.17;123399;1103;104291;-77
2022/04/07 05:19:50;;;;;;;25.73;14.53;;;;;;;9.13;54.60;99766.33;123236;1102;104402;-77
2022/04/07 05:22:19;;;;;;;27.77;15.40;;;;;;;9.15;55.16;99770.78;123827;1102;104252;-78
2022/04/07 05:25:06;;;;;;;27.33;14.40;;;;;;;9.22;54.72;99761.36;123295;1105;104393;-77
2022/04/07 05:27:37;;;;;;;27.87;15.40;;;;;;;9.29;55.04;99760.72;123828;1102;104367;-78
2022/04/07 05:30:10;;;;;;;24.57;13.00;;;;;;;9.38;55.20;99759.20;124188;1102;101778;-77
2022/04/07 05:32:40;;;;;;;25.30;14.20;;;;;;;9.46;54.57;99755.96;123805;1106;103178;-75
2022/04/07 05:35:26;;;;;;;25.20;13.70;;;;;;;9.53;54.85;99755.27;123809;1102;104312;-77
2022/04/07 05:37:59;;;;;;;24.37;13.57;;;;;;;9.64;54.81;99760.80;123347;1103;104363;-77
2022/04/07 05:40:33;;;;;;;26.10;14.07;;;;;;;9.74;54.52;99747.95;123139;1102;104382;-76
2022/04/07 05:43:04;;;;;;;26.67;14.47;;;;;;;9.84;54.42;99755.23;123656;1102;104164;-76
2022/04/07 05:45:38;;;;;;;24.30;13.90;;;;;;;9.88;54.91;99749.24;123589;1102;104238;-76
2022/04/07 05:48:10;;;;;;;25.17;13.30;;;;;;;9.94;54.93;99744.16;123877;1102;104232;-76
2022/04/07 05:50:43;;;;;;;24.60;13.17;;;;;;;10.00;54.49;99744.32;123409;1102;104722;-77
2022/04/07 05:53:47;;;;;;;23.87;12.47;;;;;;;10.02;55.00;99737.38;123644;1105;104328;-75
2022/04/07 05:56:28;;;;;;;23.47;12.17;;;;;;;10.07;54.42;99733.13;124223;1102;104220;-76
2022/04/07 05:58:58;;;;;;;24.73;13.47;;;;;;;10.15;54.85;99732.45;123919;1102;104682;-76
2022/04/07 06:01:30;;;;;;;22.73;12.50;;;;;;;10.24;54.60;99727.43;123509;1103;104282;-77
2022/04/07 06:03:59;;;;;;;24.37;13.07;;;;;;;10.32;54.75;99727.62;123801;1105;104303;-79
2022/04/07 06:06:47;;;;;;;24.73;13.07;;;;;;;10.40;54.11;99732.21;124162;1102;104343;-79
2022/04/07 06:09:37;;;;;;;25.10;13.03;;;;;;;10.50;54.49;99732.44;124798;1102;102347;-80
2022/04/07 06:12:29;;;;;;;24.60;12.80;;;;;;;10.58;54.43;99728.24;124333;1102;104245;-79
2022/04/07 06:15:18;;;;;;;22.20;12.30;;;;;;;10.66;54.38;99731.95;125175;1103;118488;-78
2022/04/07 06:17:54;;;;;;;22.33;11.53;;;;;;;10.77;54.71;99730.45;125235;1102;104341;-79
2022/04/07 06:20:46;;;;;;;24.60;11.63;;;;;;;10.88;54.16;99719.31;124541;1102;104310;-78
2022/04/07 06:23:39;;;;;;;21.43;11.37;;;;;;;11.01;54.15;99715.22;124422;1102;104214;-78
2022/04/07 06:26:17;;;;;;;20.00;11.33;;;;;;;11.15;53.92;99706.75;125334;1102;104215;-79
2022/04/07 06:28:54;;;;;;;21.73;11.30;;;;;;;11.28;53.81;99689.53;123889;1103;104729;-77
2022/04/07 06:34:36;;;;;;;25.97;11.57;;;;;;;11.61;53.53;99685.77;125071;1102;104325;-79
2022/04/07 06:37:09;;;;;;;21.13;11.07;;;;;;;11.74;53.57;99676.36;123779;1102;104398;-79
2022/04/07 06:39:44;;;;;;;20.43;10.87;;;;;;;11.91;53.59;99674.02;124014;1102;104269;-79
2022/04/07 06:42:18;;;;;;;19.03;10.47;;;;;;;12.11;52.93;99670.89;124319;1102;104259;-80
2022/04/07 06:44:57;;;;;;;19.97;10.50;;;;;;;12.30;53.01;99665.03;124471;1102;104211;-79
2022/04/07 06:47:47;;;;;;;19.13;9.47;;;;;;;12.46;52.44;99670.53;124749;1102;104219;-79
2022/04/07 06:50:23;;;;;;;18.17;9.00;;;;;;;12.61;52.57;99664.63;124932;1102;104219;-80
2022/04/07 06:53:05;;;;;;;19.63;9.70;;;;;;;12.75;52.13;99665.69;124830;1105;104203;-80
2022/04/07 06:55:39;;;;;;;18.00;8.70;;;;;;;12.85;52.00;99659.66;123872;1102;104587;-79
2022/04/07 06:58:18;;;;;;;18.97;8.73;;;;;;;13.04;52.21;99647.63;123968;1102;104402;-78
2022/04/07 07:01:08;;;;;;;16.63;7.77;;;;;;;13.25;50.55;99636.44;124197;1102;104290;-77
2022/04/07 07:03:49;;;;;;;16.57;8.47;;;;;;;13.47;51.48;99650.75;123930;1102;104290;-77
2022/04/07 07:06:21;;;;;;;14.43;7.47;;;;;;;13.69;49.52;99637.79;124197;1105;104357;-78
2022/04/07 07:09:05;;;;;;;20.92;7.37;;;;;;;13.90;50.04;99631.83;124296;1102;104249;-79
2022/04/07 07:15:37;;;;;;;13.97;7.07;;;;;;;14.33;47.26;99632.12;125452;1102;104177;-78
2022/04/07 07:18:10;;;;;;;12.07;6.43;;;;;;;14.46;47.07;99627.83;124353;1102;108207;-78
2022/04/07 07:20:42;;;;;;;13.67;6.93;;;;;;;14.67;47.09;99627.08;123912;1102;104239;-78
2022/04/07 07:23:20;;;;;;;12.57;6.80;;;;;;;14.87;47.42;99621.89;123746;1102;104252;-76
2022/04/07 07:25:57;;;;;;;14.60;6.77;;;;;;;15.03;44.21;99612.27;124700;1102;102799;-77
2022/04/07 07:28:26;;;;;;;;;;;;;;;15.10;43.05;99611.42;123833;1102;104271;-77
2022/04/07 07:31:02;;;;;;;12.27;6.80;;;;;;;15.25;44.32;99604.40;124038;1102;104361;-77
2022/04/07 07:33:35;;;;;;;14.57;6.27;;;;;;;15.35;42.12;99587.70;123354;1102;104287;-76
2022/04/07 07:36:05;;;;;;;10.10;6.03;;;;;;;15.46;42.98;99585.94;124560;1102;104350;-76
2022/04/07 07:38:34;;;;;;;11.00;6.00;;;;;;;15.64;43.83;99592.11;123808;1103;104339;-77
2022/04/07 07:41:05;;;;;;;10.63;5.83;;;;;;;15.86;43.01;99586.86;123369;1102;104386;-76
2022/04/07 07:43:42;;;;;;;11.40;6.30;;;;;;;16.07;43.85;99583.33;123594;1102;104338;-76
2022/04/07 07:46:18;;;;;;;14.43;6.50;;;;;;;16.22;42.04;99571.82;124111;1102;104235;-77
2022/04/07 07:51:55;;;;;;;11.30;5.97;;;;;;;16.57;40.14;99555.84;124190;1102;104284;-77
2022/04/07 07:54:33;;;;;;;12.17;5.90;;;;;;;16.71;40.28;99550.48;123694;1102;104412;-78
2022/04/07 07:57:07;;;;;;;11.10;5.50;;;;;;;16.81;40.58;99544.27;123624;1102;104242;-79
2022/04/07 07:59:39;;;;;;;9.73;5.43;;;;;;;16.95;38.38;99538.03;123832;1102;104248;-78
2022/04/07 08:02:13;;;;;;;10.43;5.63;;;;;;;17.08;39.09;99537.08;123558;1102;104395;-77
2022/04/07 08:04:43;;;;;;;12.68;5.67;;;;;;;17.17;39.48;99528.17;123710;1102;104367;-77
2022/04/07 08:07:23;;;;;;;11.00;4.87;;;;;;;17.22;36.14;99534.34;123854;1102;104649;-77
2022/04/07 08:09:56;;;;;;;10.43;5.33;;;;;;;17.22;38.35;99537.86;123972;1103;104287;-78
2022/04/07 08:12:29;;;;;;;8.93;5.30;;;;;;;17.25;37.23;99535.19;123867;1102;104335;-77
2022/04/07 08:14:59;;;;;;;9.20;5.23;;;;;;;17.29;36.46;99528.09;124213;1102;104335;-79
2022/04/07 08:17:34;;;;;;;11.83;5.00;;;;;;;17.40;36.87;99515.61;123996;1102;104216;-77
2022/04/07 08:20:22;;;;;;;9.03;5.10;;;;;;;17.53;37.19;99528.78;124394;1102;103191;-78
2022/04/07 08:23:09;;;;;;;10.63;4.83;;;;;;;17.64;36.74;99528.69;123654;1102;104494;-77
2022/04/07 08:25:47;;;;;;;9.30;4.80;;;;;;;17.70;36.13;99532.19;123815;1102;104459;-77
2022/04/07 08:28:34;;;;;;;10.17;4.60;;;;;;;17.74;36.14;99530.38;124156;1102;104245;-78
2022/04/07 08:31:05;;;;;;;9.37;5.07;;;;;;;17.86;36.72;99513.48;124399;1102;104320;-78
2022/04/07 08:36:30;;;;;;;8.60;4.40;;;;;;;18.12;34.25;99514.13;124084;1099;104290;-78
2022/04/07 08:39:09;;;;;;;7.43;4.10;;;;;;;18.31;34.89;99517.44;124183;1102;104239;-77
2022/04/07 08:41:49;;;;;;;7.10;4.30;;;;;;;18.50;32.20;99515.44;123840;1102;104396;-78
2022/04/07 08:44:31;;;;;;;;;;;;;;;;;;;;;
2022/04/07 08:47:04;;;;;;;6.00;3.80;;;;;;;18.80;30.38;99488.48;123565;1102;104428;-77
2022/04/07 08:49:56;;;;;;;8.73;4.00;;;;;;;18.92;31.17;99501.63;123638;1102;104348;-76
2022/04/07 08:52:33;;;;;;;9.13;3.97;;;;;;;19.09;30.11;99501.39;123438;1102;104341;-77
2022/04/07 08:55:14;;;;;;;9.27;4.20;;;;;;;19.18;31.89;99492.38;123323;1102;104651;-77
2022/04/07 08:57:52;;;;;;;5.60;4.10;;;;;;;19.32;29.86;99495.72;123174;1102;104549;-75
2022/04/07 09:00:26;;;;;;;7.00;4.33;;;;;;;19.31;30.28;99472.67;123187;1102;104658;-77
2022/04/07 09:03:11;;;;;;;9.53;4.30;;;;;;;19.38;31.05;99473.44;123128;1102;104395;-76
2022/04/07 09:05:53;;;;;;;9.27;4.10;;;;;;;19.52;30.21;99470.55;123078;1102;104236;-78
2022/04/07 09:08:28;;;;;;;7.23;4.07;;;;;;;19.56;30.54;99458.95;123455;1102;104529;-76
2022/04/07 09:11:00;;;;;;;7.27;4.17;;;;;;;19.69;31.35;99463.13;123217;1099;104357;-76
2022/04/07 09:13:34;;;;;;;8.23;4.40;;;;;;;19.61;30.66;99448.23;123494;1099;104224;-77
2022/04/07 09:16:07;;;;;;;11.10;4.40;;;;;;;19.65;29.41;99429.52;123435;1099;104248;-76
2022/04/07 09:18:38;;;;;;;8.67;4.50;;;;;;;19.72;29.51;99441.78;123448;1099;104188;-77
2022/04/07 09:21:20;;;;;;;6.50;3.73;;;;;;;19.84;29.59;99443.39;123530;1099;104318;-77
2022/04/07 09:23:51;;;;;;;9.80;4.10;;;;;;;19.83;30.26;99438.09;123576;1102;104402;-77
2022/04/07 09:26:33;;;;;;;8.53;3.50;;;;;;;19.82;29.83;99434.56;124058;1100;104153;-78
2022/04/07 09:29:12;;;;;;;9.77;3.83;;;;;;;19.89;29.44;99428.19;123559;1102;104200;-77
2022/04/07 09:31:54;;;;;;;6.00;3.60;;;;;;;19.99;29.61;99422.69;123509;1102;104258;-78
2022/04/07 09:34:32;;;;;;;6.23;3.50;;;;;;;19.88;29.17;99428.22;123452;1102;104282;-75
2022/04/07 09:37:09;;;;;;;8.07;3.63;;;;;;;19.86;28.86;99414.08;123582;1102;104399;-75
2022/04/07 09:39:39;;;;;;;8.13;4.10;;;;;;;19.75;28.80;99416.91;123510;1102;104631;-75
2022/04/07 09:42:27;;;;;;;10.90;4.10;;;;;;;19.70;29.18;99411.67;123676;1102;110608;-76
2022/04/07 09:44:57;;;;;;;9.77;3.83;;;;;;;19.65;29.94;99402.91;123859;1099;104284;-76
2022/04/07 09:47:35;;;;;;;12.03;4.27;;;;;;;19.60;29.51;99399.44;123691;1099;104220;-76
2022/04/07 09:50:05;;;;;;;8.07;3.80;;;;;;;19.57;29.83;99399.49;123860;1102;104384;-78
2022/04/07 09:52:40;;;;;;;7.70;3.70;;;;;;;19.57;29.43;99394.17;123807;1099;104274;-77
2022/04/07 09:55:11;;;;;;;11.07;4.00;;;;;;;19.57;29.59;99391.52;123959;1099;104245;-76
2022/04/07 09:57:41;;;;;;;9.90;3.97;;;;;;;19.51;29.89;99371.24;123643;1099;102787;-77
2022/04/07 10:00:16;;;;;;;9.47;3.50;;;;;;;19.39;29.36;99369.67;123830;1100;104226;-76
2022/04/07 10:02:46;;;;;;;7.67;3.50;;;;;;;19.30;30.42;99379.61;123642;1099;104444;-76
2022/04/07 10:05:16;;;;;;;7.47;3.70;;;;;;;19.24;29.85;99374.40;123585;1102;104236;-77
2022/04/07 10:07:47;;;;;;;8.80;3.93;;;;;;;19.24;29.98;99363.77;123587;1099;104316;-77
2022/04/07 10:10:18;;;;;;;8.30;3.13;;;;;;;19.25;30.10;99363.73;123966;1102;104252;-75
2022/04/07 10:12:47;;;;;;;7.17;3.57;;;;;;;19.25;30.48;99363.73;123859;1099;118023;-75
2022/04/07 10:15:18;;;;;;;12.77;3.80;;;;;;;19.10;31.99;99362.21;123772;1099;104431;-76
2022/04/07 10:17:48;;;;;;;9.40;3.40;;;;;;;18.92;32.34;99363.41;124033;1102;104293;-75
2022/04/07 10:20:19;;;;;;;11.27;3.60;;;;;;;18.88;31.99;99347.55;124404;1099;104242;-75
2022/04/07 10:23:00;;;;;;;6.67;3.50;;;;;;;18.89;31.81;99351.97;123974;1099;104160;-74
2022/04/07 10:25:30;;;;;;;9.00;3.45;;;;;;;18.83;32.05;99342.27;124076;1099;104328;-75
2022/04/07 10:28:10;;;;;;;7.97;3.57;;;;;;;18.77;32.25;99331.74;124345;1102;104358;-76
2022/04/07 10:30:48;;;;;;;9.40;3.60;;;;;;;18.76;31.74;99330.87;124140;1099;104479;-79
2022/04/07 10:33:45;;;;;;;8.13;3.20;;;;;;;18.74;31.75;99326.48;124023;1098;110146;-77
2022/04/07 10:36:17;;;;;;;12.53;3.60;;;;;;;18.70;31.80;99320.34;124283;1099;104165;-78
2022/04/07 10:38:57;;;;;;;;;;;;;;;18.65;32.09;99319.52;124999;1099;104168;-75
2022/04/07 10:41:54;;;;;;;7.60;3.33;;;;;;;18.69;31.75;99316.79;123805;1099;104185;-76
2022/04/07 10:44:32;;;;;;;9.33;3.20;;;;;;;18.68;31.90;99312.40;124481;1099;104638;-75
2022/04/07 10:47:08;;;;;;;9.57;3.27;;;;;;;18.72;31.70;99299.06;123861;1099;104941;-75
2022/04/07 10:49:46;;;;;;;10.70;3.80;;;;;;;18.58;30.55;99293.98;124657;1099;104240;-76
2022/04/07 10:52:27;;;;;;;5.50;2.80;;;;;;;18.52;30.14;99294.94;123609;1099;104364;-76
2022/04/07 10:55:13;;;;;;;7.80;3.50;;;;;;;18.45;30.62;99287.95;123486;1099;104162;-75
2022/04/07 10:58:11;;;;;;;7.03;3.20;;;;;;;18.42;30.12;99296.01;123753;1102;104300;-75
2022/04/07 11:00:42;;;;;;;11.68;3.35;;;;;;;18.40;29.95;99289.82;123495;1100;104425;-77
2022/04/07 11:03:18;;;;;;;9.13;3.17;;;;;;;18.43;29.95;99297.73;123437;1099;104334;-77
2022/04/07 11:05:58;;;;;;;6.27;3.10;;;;;;;18.29;30.09;99288.23;123849;1099;104373;-79
2022/04/07 11:08:30;;;;;;;6.37;3.10;;;;;;;18.25;29.89;99288.30;123561;1099;104293;-77
2022/04/07 11:11:33;;;;;;;5.47;3.10;;;;;;;18.24;30.06;99289.19;123537;1099;104290;-78
2022/04/07 11:14:10;;;;;;;7.37;2.98;;;;;;;18.24;29.98;99284.73;124010;1099;111122;-78
2022/04/07 11:16:46;;;;;;;8.50;3.07;;;;;;;18.31;30.36;99281.10;123741;1099;104180;-77
2022/04/07 11:19:31;;;;;;;8.53;2.70;;;;;;;18.40;30.45;99274.78;123424;1102;104329;-76
2022/04/07 11:55:27;;;;;;;8.77;3.00;;;;;;;18.00;31.78;99242.62;123693;1102;105070;-75
2022/04/07 11:58:02;;;;;;;8.73;3.15;;;;;;;17.90;31.73;99231.28;123154;1102;104313;-78
2022/04/07 12:00:45;;;;;;;9.10;3.20;;;;;;;17.82;32.17;99235.80;123811;1102;105053;-78
2022/04/07 12:03:18;;;;;;;8.37;3.13;;;;;;;17.76;32.17;99221.72;123938;1102;104237;-78
2022/04/07 12:05:56;;;;;;;6.80;3.02;;;;;;;17.67;32.88;99223.60;123936;1102;104200;-79
2022/04/07 12:08:28;;;;;;;9.70;3.63;;;;;;;17.58;33.06;99206.05;124090;1102;104235;-77
2022/04/07 12:11:05;;;;;;;8.57;3.70;;;;;;;17.53;33.07;99213.17;124067;1102;104355;-78
2022/04/07 12:13:47;;;;;;;9.63;3.70;;;;;;;17.46;34.13;99209.73;123411;1102;104310;-79
2022/04/07 12:16:20;;;;;;;10.80;3.40;;;;;;;17.36;34.25;99208.12;123840;1102;104393;-78
2022/04/07 12:19:04;;;;;;;10.53;3.60;;;;;;;17.38;34.08;99198.36;124486;1102;104242;-77
2022/04/07 12:21:58;;;;;;;8.30;3.50;;;;;;;17.42;34.24;99193.00;123662;1102;104338;-77
2022/04/07 12:24:32;;;;;;;11.67;3.93;;;;;;;17.35;34.54;99193.09;123393;1102;104271;-77
2022/04/07 12:27:08;;;;;;;9.37;3.50;;;;;;;17.35;34.62;99187.80;123423;1102;104344;-78
2022/04/07 12:29:55;;;;;;;12.37;3.60;;;;;;;17.26;34.74;99180.82;123025;1102;104350;-76
2022/04/07 12:32:46;;;;;;;14.70;3.70;;;;;;;17.21;34.39;99180.02;123351;1102;104229;-76
2022/04/07 12:35:49;;;;;;;10.43;3.70;;;;;;;17.12;35.62;99174.82;123095;1102;104329;-76
2022/04/07 12:38:26;;;;;;;13.40;3.60;;;;;;;17.01;35.27;99170.52;123528;1102;104275;-79
2022/04/07 12:41:10;;;;;;;16.50;4.30;;;;;;;17.03;35.33;99162.55;123534;1102;104264;-79
2022/04/07 12:43:54;;;;;;;13.00;3.70;;;;;;;16.89;35.77;99154.76;123906;1105;104296;-79
2022/04/07 12:46:45;;;;;;;12.90;4.03;;;;;;;16.91;35.74;99154.73;123717;1102;104751;-76
2022/04/07 12:49:36;;;;;;;12.37;3.80;;;;;;;16.97;36.22;99141.42;123343;1102;104271;-77
2022/04/07 12:52:19;;;;;;;12.50;4.23;;;;;;;16.98;36.74;99136.10;123525;1102;104274;-77
2022/04/07 12:54:59;;;;;;;;;;;;;;;16.92;38.31;99132.66;123248;1102;104305;-78
2022/04/07 12:57:39;;;;;;;17.80;4.35;;;;;;;16.91;37.37;99146.79;123303;1104;117987;-76
2022/04/07 13:00:13;;;;;;;13.10;4.33;;;;;;;16.80;38.19;99131.02;122975;1105;104287;-79
2022/04/07 13:02:53;;;;;;;13.13;4.50;;;;;;;16.67;38.14;99135.55;123760;1105;104342;-77
2022/04/07 13:05:26;;;;;;;14.57;4.40;;;;;;;16.57;38.39;99137.43;123163;1105;104347;-78
2022/04/07 13:08:04;;;;;;;16.85;4.83;;;;;;;16.47;38.30;99133.11;123043;1105;104447;-77
2022/04/07 13:10:55;;;;;;;16.00;4.13;;;;;;;16.35;38.93;99142.07;122974;1105;104869;-78
2022/04/07 13:13:51;;;;;;;16.37;4.07;;;;;;;16.35;37.73;99136.78;123230;1106;104485;-77
2022/04/07 13:16:24;;;;;;;14.83;4.10;;;;;;;16.44;38.57;99138.44;123496;1105;104546;-76
2022/04/07 13:18:58;;;;;;;17.20;4.42;;;;;;;16.44;38.44;99135.79;122937;1105;105742;-76
2022/04/07 13:21:30;;;;;;;12.67;3.63;;;;;;;16.35;38.54;99134.13;123184;1105;104366;-78
2022/04/07 13:24:02;;;;;;;9.57;3.47;;;;;;;16.30;38.80;99125.36;123342;1105;104267;-78
2022/04/07 13:26:35;;;;;;;13.77;3.80;;;;;;;16.23;38.42;99127.17;123796;1105;104403;-77
2022/04/07 13:29:07;;;;;;;19.23;3.90;;;;;;;16.25;39.34;99124.51;123150;1105;104428;-76
2022/04/07 13:31:40;;;;;;;10.47;3.27;;;;;;;16.21;39.67;99118.38;123108;1104;104354;-77
2022/04/07 13:34:14;;;;;;;17.27;4.63;;;;;;;16.14;38.98;99120.21;123288;1105;104239;-76
2022/04/07 13:36:48;;;;;;;17.57;3.75;;;;;;;15.97;38.58;99116.81;122984;1105;104226;-78
2022/04/07 13:39:22;;;;;;;16.83;3.93;;;;;;;15.92;39.11;99123.91;123241;1102;104242;-77
2022/04/07 13:41:57;;;;;;;13.90;3.65;;;;;;;15.90;38.56;99109.83;123911;1102;104367;-77
2022/04/07 13:44:42;;;;;;;16.63;4.00;;;;;;;15.79;39.33;99099.34;124134;1102;104418;-78
2022/04/07 13:47:14;;;;;;;16.83;4.17;;;;;;;15.79;39.31;99109.92;123663;1102;104341;-76
2022/04/07 13:49:47;;;;;;;14.83;3.80;;;;;;;15.76;39.55;99097.55;123355;1102;104361;-77
2022/04/07 13:52:20;;;;;;;15.67;3.73;;;;;;;15.70;40.03;99089.66;123198;1105;104347;-76
2022/04/07 13:54:56;;;;;;;15.40;4.03;;;;;;;15.71;39.89;99098.50;123453;1102;104264;-78
2022/04/07 13:57:28;;;;;;;13.83;3.90;;;;;;;15.66;40.16;99087.95;123297;1102;104428;-78
2022/04/07 14:00:00;;;;;;;17.30;4.20;;;;;;;15.61;40.63;99092.38;123724;1102;104239;-76
2022/04/07 14:02:31;;;;;;;16.17;4.33;;;;;;;15.61;40.91;99100.30;123395;1103;104286;-77
2022/04/07 14:05:03;;;;;;;15.13;3.70;;;;;;;15.61;40.26;99087.98;123816;1102;104402;-77
2022/04/07 14:07:37;;;;;;;18.70;4.07;;;;;;;15.61;41.22;99076.52;123635;1102;104350;-79
2022/04/07 14:10:12;;;;;;;21.60;4.50;;;;;;;15.59;41.38;99083.59;123602;1102;104211;-78
2022/04/07 14:12:45;;;;;;;11.80;4.30;;;;;;;15.53;41.49;99075.70;123199;1105;104348;-77
2022/04/07 14:15:20;;;;;;;15.50;4.20;;;;;;;15.40;42.23;99059.92;123591;1102;104286;-78
2022/04/07 14:17:53;;;;;;;13.97;4.37;;;;;;;15.34;42.75;99062.61;123288;1102;104335;-77
2022/04/07 14:20:25;;;;;;;14.43;3.70;;;;;;;15.28;43.08;99054.72;123550;1102;104159;-76
2022/04/07 14:22:57;;;;;;;16.67;4.13;;;;;;;15.26;42.62;99062.66;123645;1102;104265;-77
2022/04/07 14:25:31;;;;;;;11.67;3.60;;;;;;;15.25;43.18;99054.73;123852;1102;104156;-78
2022/04/07 14:28:05;;;;;;;15.30;3.47;;;;;;;15.23;42.22;99061.80;123726;1102;104236;-78
2022/04/07 14:30:39;;;;;;;;;;;;;;;15.15;43.55;99055.70;123566;1102;104194;-79
2022/04/07 14:33:22;;;;;;;14.40;4.20;;;;;;;15.01;43.47;99050.49;123487;1102;104842;-78
2022/04/07 14:36:01;;;;;;;16.30;3.65;;;;;;;14.94;43.68;99040.84;124149;1102;104336;-80
2022/04/07 14:38:35;;;;;;;9.57;3.20;;;;;;;14.95;43.30;99045.24;124644;1102;101949;-78
2022/04/07 14:41:08;;;;;;;18.13;3.97;;;;;;;14.96;42.38;99037.31;124241;1102;104817;-78
2022/04/07 14:43:39;;;;;;;13.77;3.53;;;;;;;15.02;42.79;99044.30;124471;1101;104357;-76
2022/04/07 14:46:12;;;;;;;19.23;3.83;;;;;;;14.95;44.17;99032.91;124063;1102;104165;-79
2022/04/07 14:48:44;;;;;;;12.80;3.63;;;;;;;14.90;43.47;99040.85;124432;1102;102648;-77
2022/04/07 14:51:15;;;;;;;13.63;3.20;;;;;;;14.82;43.51;99037.38;124441;1099;102371;-77
2022/04/07 14:53:47;;;;;;;11.93;3.47;;;;;;;14.78;43.38;99037.41;124405;1102;104262;-78
2022/04/07 14:56:20;;;;;;;12.70;3.77;;;;;;;14.69;43.61;99041.84;124173;1099;104160;-78
2022/04/07 14:58:51;;;;;;;12.50;3.10;;;;;;;14.60;44.81;99041.89;124109;1102;104338;-78
2022/04/07 15:01:23;;;;;;;15.40;3.40;;;;;;;14.55;43.93;99044.51;124382;1102;104332;-79
2022/04/07 15:03:57;;;;;;;14.30;3.37;;;;;;;14.51;44.37;99055.08;124134;1102;102416;-79
2022/04/07 15:06:30;;;;;;;13.07;3.30;;;;;;;14.41;45.12;99043.66;124203;1102;104249;-78
2022/04/07 15:09:02;;;;;;;19.43;4.23;;;;;;;14.36;44.87;99054.22;124111;1102;104201;-77
2022/04/07 15:11:36;;;;;;;18.57;4.30;;;;;;;14.29;44.92;99055.14;124118;1099;104262;-78
2022/04/07 15:14:08;;;;;;;15.38;3.42;;;;;;;14.19;45.49;99053.39;124110;1102;104323;-78
2022/04/07 15:16:42;;;;;;;13.93;3.77;;;;;;;14.12;45.31;99046.39;124063;1102;104322;-79
2022/04/07 15:19:15;;;;;;;15.72;3.92;;;;;;;14.03;46.25;99040.23;123936;1099;104278;-79
2022/04/07 15:21:47;;;;;;;12.37;3.35;;;;;;;13.98;45.59;99034.09;124246;1099;104165;-78
2022/04/07 15:24:21;;;;;;;14.83;3.40;;;;;;;13.92;46.07;99033.23;124137;1099;104236;-78
2022/04/07 15:26:54;;;;;;;14.77;3.80;;;;;;;13.85;46.51;99037.62;124263;1099;104268;-77
2022/04/07 15:29:28;;;;;;;14.20;3.03;;;;;;;13.76;47.54;99025.34;124136;1099;104255;-78
2022/04/07 15:32:00;;;;;;;15.63;3.60;;;;;;;13.58;47.85;99020.08;123998;1102;104261;-77
2022/04/07 15:34:35;;;;;;;14.40;3.90;;;;;;;13.43;47.55;99013.94;123785;1099;104249;-77
2022/04/07 15:37:08;;;;;;;12.27;3.27;;;;;;;13.38;47.55;99014.80;123805;1102;104271;-78
2022/04/07 15:39:40;;;;;;;16.43;3.80;;;;;;;13.27;47.79;99004.22;123816;1099;104205;-78
2022/04/07 15:42:11;;;;;;;13.83;3.70;;;;;;;13.18;48.83;99007.70;124179;1102;104271;-77
2022/04/07 15:44:44;;;;;;;10.23;3.23;;;;;;;13.09;49.44;99010.36;124015;1099;104341;-76
2022/04/07 15:47:16;;;;;;;11.47;3.40;;;;;;;12.99;50.07;99000.67;123881;1099;104261;-76
2022/04/07 15:49:48;;;;;;;16.73;3.60;;;;;;;12.93;49.47;98994.53;123943;1102;104413;-76
2022/04/07 15:52:21;;;;;;;10.20;3.00;;;;;;;12.87;50.56;98999.78;123801;1098;104338;-76
2022/04/07 15:54:55;;;;;;;11.30;3.37;;;;;;;12.82;50.31;99001.50;123863;1099;104316;-76
2022/04/07 15:57:27;;;;;;;17.23;3.87;;;;;;;12.76;49.97;98997.12;123706;1099;104497;-77
2022/04/07 16:00:00;;;;;;;17.30;3.73;;;;;;;12.73;49.92;99002.37;123681;1102;104374;-77
2022/04/07 16:02:32;;;;;;;13.80;3.50;;;;;;;12.68;50.02;99000.59;123785;1099;104265;-77
2022/04/07 16:05:05;;;;;;;13.77;3.80;;;;;;;12.67;49.88;98999.72;123833;1100;104236;-77
2022/04/07 16:07:37;;;;;;;13.60;3.80;;;;;;;12.63;50.42;99000.58;123774;1099;104274;-77
2022/04/07 16:10:13;;;;;;;15.03;3.73;;;;;;;12.58;50.91;99004.95;123824;1102;104726;-77
2022/04/07 16:12:46;;;;;;;20.23;4.07;;;;;;;12.53;50.19;99002.30;123708;1102;104339;-77